sensor_id;sensor_type;location;lat;lon;timestamp;P1;durP1;ratioP1;P2;durP2;ratioP2
62693;SDS011;48759;52.544;13.418;2024-02-04T00:02:21;8.93;;;3.33;;
62693;SDS011;48759;52.544;13.418;2024-02-04T00:04:51;9.13;;;2.73;;
62693;SDS011;48759;52.544;13.418;2024-02-04T00:07:17;9.33;;;2.73;;
62693;SDS011;48759;52.544;13.418;2024-02-04T00:09:44;11.87;;;3.37;;
62693;SDS011;48759;52.544;13.418;2024-02-04T00:12:10;9.00;;;2.50;;
62693;SDS011;48759;52.544;13.418;2024-02-04T00:14:37;11.60;;;2.40;;
62693;SDS011;48759;52.544;13.418;2024-02-04T00:17:03;16.43;;;3.00;;
62693;SDS011;48759;52.544;13.418;2024-02-04T00:19:30;11.07;;;3.40;;
62693;SDS011;48759;52.544;13.418;2024-02-04T00:21:58;17.47;;;3.07;;
62693;SDS011;48759;52.544;13.418;2024-02-04T00:24:26;12.40;;;2.70;;
62693;SDS011;48759;52.544;13.418;2024-02-04T00:26:52;8.53;;;2.73;;
62693;SDS011;48759;52.544;13.418;2024-02-04T00:29:19;12.10;;;2.63;;
62693;SDS011;48759;52.544;13.418;2024-02-04T00:31:45;10.00;;;3.20;;
62693;SDS011;48759;52.544;13.418;2024-02-04T00:34:12;11.93;;;2.67;;
62693;SDS011;48759;52.544;13.418;2024-02-04T00:36:38;8.67;;;3.03;;
62693;SDS011;48759;52.544;13.418;2024-02-04T00:39:06;15.10;;;2.90;;
62693;SDS011;48759;52.544;13.418;2024-02-04T00:41:32;4.73;;;2.50;;
62693;SDS011;48759;52.544;13.418;2024-02-04T00:43:59;7.37;;;2.27;;
62693;SDS011;48759;52.544;13.418;2024-02-04T00:46:25;7.67;;;2.57;;
62693;SDS011;48759;52.544;13.418;2024-02-04T00:48:52;11.63;;;2.90;;
62693;SDS011;48759;52.544;13.418;2024-02-04T00:51:18;11.07;;;3.10;;
62693;SDS011;48759;52.544;13.418;2024-02-04T00:53:44;12.37;;;3.80;;
62693;SDS011;48759;52.544;13.418;2024-02-04T00:56:12;10.30;;;2.60;;
62693;SDS011;48759;52.544;13.418;2024-02-04T00:58:39;25.67;;;3.97;;
62693;SDS011;48759;52.544;13.418;2024-02-04T01:01:05;16.00;;;3.80;;
62693;SDS011;48759;52.544;13.418;2024-02-04T01:03:32;10.30;;;2.50;;
62693;SDS011;48759;52.544;13.418;2024-02-04T01:05:58;13.10;;;3.30;;
62693;SDS011;48759;52.544;13.418;2024-02-04T01:08:25;14.00;;;2.80;;
62693;SDS011;48759;52.544;13.418;2024-02-04T01:10:51;17.27;;;3.00;;
62693;SDS011;48759;52.544;13.418;2024-02-04T01:13:19;12.83;;;3.03;;
62693;SDS011;48759;52.544;13.418;2024-02-04T01:15:45;7.93;;;2.73;;
62693;SDS011;48759;52.544;13.418;2024-02-04T01:18:12;18.20;;;3.20;;
62693;SDS011;48759;52.544;13.418;2024-02-04T01:20:38;14.23;;;3.40;;
62693;SDS011;48759;52.544;13.418;2024-02-04T01:23:05;13.23;;;3.13;;
62693;SDS011;48759;52.544;13.418;2024-02-04T01:25:32;14.63;;;3.20;;
62693;SDS011;48759;52.544;13.418;2024-02-04T01:27:58;14.00;;;2.70;;
62693;SDS011;48759;52.544;13.418;2024-02-04T01:30:26;15.50;;;2.43;;
62693;SDS011;48759;52.544;13.418;2024-02-04T01:32:55;9.93;;;2.90;;
62693;SDS011;48759;52.544;13.418;2024-02-04T01:35:22;12.70;;;3.63;;
62693;SDS011;48759;52.544;13.418;2024-02-04T01:37:48;15.23;;;3.37;;
62693;SDS011;48759;52.544;13.418;2024-02-04T01:40:14;8.77;;;3.30;;
62693;SDS011;48759;52.544;13.418;2024-02-04T01:42:41;10.13;;;2.67;;
62693;SDS011;48759;52.544;13.418;2024-02-04T01:45:08;16.03;;;3.00;;
62693;SDS011;48759;52.544;13.418;2024-02-04T01:47:36;9.70;;;2.90;;
62693;SDS011;48759;52.544;13.418;2024-02-04T01:50:03;8.50;;;2.77;;
62693;SDS011;48759;52.544;13.418;2024-02-04T01:52:30;11.30;;;2.93;;
62693;SDS011;48759;52.544;13.418;2024-02-04T01:54:57;15.80;;;3.80;;
62693;SDS011;48759;52.544;13.418;2024-02-04T01:57:25;16.77;;;3.50;;
62693;SDS011;48759;52.544;13.418;2024-02-04T01:59:52;19.43;;;2.67;;
62693;SDS011;48759;52.544;13.418;2024-02-04T02:02:20;14.10;;;3.30;;
62693;SDS011;48759;52.544;13.418;2024-02-04T02:04:47;20.63;;;3.47;;
62693;SDS011;48759;52.544;13.418;2024-02-04T02:07:14;7.67;;;3.03;;
62693;SDS011;48759;52.544;13.418;2024-02-04T02:09:41;14.57;;;2.97;;
62693;SDS011;48759;52.544;13.418;2024-02-04T02:12:09;20.10;;;4.30;;
62693;SDS011;48759;52.544;13.418;2024-02-04T02:14:37;19.73;;;4.23;;
62693;SDS011;48759;52.544;13.418;2024-02-04T02:17:06;10.00;;;3.73;;
62693;SDS011;48759;52.544;13.418;2024-02-04T02:19:36;20.13;;;3.50;;
62693;SDS011;48759;52.544;13.418;2024-02-04T02:22:11;13.00;;;3.53;;
62693;SDS011;48759;52.544;13.418;2024-02-04T02:24:42;16.37;;;3.57;;
62693;SDS011;48759;52.544;13.418;2024-02-04T02:27:09;9.57;;;2.70;;
62693;SDS011;48759;52.544;13.418;2024-02-04T02:29:35;11.53;;;2.70;;
62693;SDS011;48759;52.544;13.418;2024-02-04T02:32:02;11.03;;;2.80;;
62693;SDS011;48759;52.544;13.418;2024-02-04T02:34:29;12.83;;;2.90;;
62693;SDS011;48759;52.544;13.418;2024-02-04T02:37:03;9.70;;;2.80;;
62693;SDS011;48759;52.544;13.418;2024-02-04T02:39:34;17.93;;;3.60;;
62693;SDS011;48759;52.544;13.418;2024-02-04T02:42:07;14.13;;;3.00;;
62693;SDS011;48759;52.544;13.418;2024-02-04T02:44:34;16.40;;;3.10;;
62693;SDS011;48759;52.544;13.418;2024-02-04T02:47:01;12.17;;;4.20;;
62693;SDS011;48759;52.544;13.418;2024-02-04T02:49:28;12.33;;;3.20;;
62693;SDS011;48759;52.544;13.418;2024-02-04T02:51:54;11.23;;;2.63;;
62693;SDS011;48759;52.544;13.418;2024-02-04T02:54:21;10.67;;;3.30;;
62693;SDS011;48759;52.544;13.418;2024-02-04T02:56:47;18.37;;;3.60;;
62693;SDS011;48759;52.544;13.418;2024-02-04T02:59:15;12.27;;;3.10;;
62693;SDS011;48759;52.544;13.418;2024-02-04T03:01:41;14.30;;;3.03;;
62693;SDS011;48759;52.544;13.418;2024-02-04T03:04:08;12.77;;;2.90;;
62693;SDS011;48759;52.544;13.418;2024-02-04T03:06:34;16.67;;;2.87;;
62693;SDS011;48759;52.544;13.418;2024-02-04T03:09:01;13.07;;;3.00;;
62693;SDS011;48759;52.544;13.418;2024-02-04T03:11:27;16.43;;;3.10;;
62693;SDS011;48759;52.544;13.418;2024-02-04T03:13:54;9.47;;;3.37;;
62693;SDS011;48759;52.544;13.418;2024-02-04T03:16:21;13.83;;;3.20;;
62693;SDS011;48759;52.544;13.418;2024-02-04T03:18:48;12.73;;;2.60;;
62693;SDS011;48759;52.544;13.418;2024-02-04T03:21:15;12.20;;;3.00;;
62693;SDS011;48759;52.544;13.418;2024-02-04T03:23:42;19.73;;;3.10;;
62693;SDS011;48759;52.544;13.418;2024-02-04T03:26:08;9.60;;;3.40;;
62693;SDS011;48759;52.544;13.418;2024-02-04T03:28:35;13.87;;;3.40;;
62693;SDS011;48759;52.544;13.418;2024-02-04T03:31:02;17.83;;;3.57;;
62693;SDS011;48759;52.544;13.418;2024-02-04T03:33:30;5.20;;;3.00;;
62693;SDS011;48759;52.544;13.418;2024-02-04T03:35:56;10.73;;;3.37;;
62693;SDS011;48759;52.544;13.418;2024-02-04T03:38:22;8.63;;;3.13;;
62693;SDS011;48759;52.544;13.418;2024-02-04T03:40:49;12.00;;;3.10;;
62693;SDS011;48759;52.544;13.418;2024-02-04T03:43:15;10.60;;;3.60;;
62693;SDS011;48759;52.544;13.418;2024-02-04T03:45:42;8.13;;;3.50;;
62693;SDS011;48759;52.544;13.418;2024-02-04T03:48:08;13.87;;;4.20;;
62693;SDS011;48759;52.544;13.418;2024-02-04T03:50:36;9.10;;;3.00;;
62693;SDS011;48759;52.544;13.418;2024-02-04T03:53:03;17.70;;;4.33;;
62693;SDS011;48759;52.544;13.418;2024-02-04T03:55:29;10.20;;;3.50;;
62693;SDS011;48759;52.544;13.418;2024-02-04T03:57:56;10.63;;;3.43;;
62693;SDS011;48759;52.544;13.418;2024-02-04T04:00:23;10.47;;;4.23;;
62693;SDS011;48759;52.544;13.418;2024-02-04T04:02:49;9.73;;;3.60;;
62693;SDS011;48759;52.544;13.418;2024-02-04T04:05:16;10.50;;;3.40;;
62693;SDS011;48759;52.544;13.418;2024-02-04T04:07:43;8.30;;;3.40;;
62693;SDS011;48759;52.544;13.418;2024-02-04T04:10:10;10.83;;;3.13;;
62693;SDS011;48759;52.544;13.418;2024-02-04T04:12:36;14.23;;;4.07;;
62693;SDS011;48759;52.544;13.418;2024-02-04T04:15:03;9.63;;;3.77;;
62693;SDS011;48759;52.544;13.418;2024-02-04T04:17:30;15.80;;;3.30;;
62693;SDS011;48759;52.544;13.418;2024-02-04T04:19:56;11.40;;;3.37;;
62693;SDS011;48759;52.544;13.418;2024-02-04T04:22:23;12.87;;;3.70;;
62693;SDS011;48759;52.544;13.418;2024-02-04T04:24:50;4.93;;;2.73;;
62693;SDS011;48759;52.544;13.418;2024-02-04T04:27:17;6.83;;;3.67;;
62693;SDS011;48759;52.544;13.418;2024-02-04T04:29:43;14.23;;;4.50;;
62693;SDS011;48759;52.544;13.418;2024-02-04T04:32:10;7.00;;;3.87;;
62693;SDS011;48759;52.544;13.418;2024-02-04T04:34:36;11.03;;;3.47;;
62693;SDS011;48759;52.544;13.418;2024-02-04T04:37:03;15.43;;;4.43;;
62693;SDS011;48759;52.544;13.418;2024-02-04T04:39:29;14.43;;;3.20;;
62693;SDS011;48759;52.544;13.418;2024-02-04T04:41:57;8.77;;;3.87;;
62693;SDS011;48759;52.544;13.418;2024-02-04T04:44:23;4.30;;;3.00;;
62693;SDS011;48759;52.544;13.418;2024-02-04T04:46:50;12.70;;;4.03;;
62693;SDS011;48759;52.544;13.418;2024-02-04T04:49:18;8.20;;;3.57;;
62693;SDS011;48759;52.544;13.418;2024-02-04T04:51:44;15.63;;;3.70;;
62693;SDS011;48759;52.544;13.418;2024-02-04T04:54:11;12.13;;;3.20;;
62693;SDS011;48759;52.544;13.418;2024-02-04T04:56:38;11.47;;;2.90;;
62693;SDS011;48759;52.544;13.418;2024-02-04T04:59:06;12.47;;;2.93;;
62693;SDS011;48759;52.544;13.418;2024-02-04T05:01:32;9.57;;;2.87;;
62693;SDS011;48759;52.544;13.418;2024-02-04T05:03:59;9.80;;;2.73;;
62693;SDS011;48759;52.544;13.418;2024-02-04T05:06:26;6.13;;;2.60;;
62693;SDS011;48759;52.544;13.418;2024-02-04T05:08:52;8.23;;;2.87;;
62693;SDS011;48759;52.544;13.418;2024-02-04T05:11:18;8.40;;;2.80;;
62693;SDS011;48759;52.544;13.418;2024-02-04T05:13:45;8.33;;;2.17;;
62693;SDS011;48759;52.544;13.418;2024-02-04T05:16:12;3.83;;;2.77;;
62693;SDS011;48759;52.544;13.418;2024-02-04T05:18:39;6.80;;;2.17;;
62693;SDS011;48759;52.544;13.418;2024-02-04T05:21:05;13.10;;;3.23;;
62693;SDS011;48759;52.544;13.418;2024-02-04T05:23:32;8.37;;;3.37;;
62693;SDS011;48759;52.544;13.418;2024-02-04T05:26:02;9.63;;;3.00;;
62693;SDS011;48759;52.544;13.418;2024-02-04T05:28:28;5.07;;;2.17;;
62693;SDS011;48759;52.544;13.418;2024-02-04T05:30:55;11.23;;;3.07;;
62693;SDS011;48759;52.544;13.418;2024-02-04T05:33:22;4.60;;;2.17;;
62693;SDS011;48759;52.544;13.418;2024-02-04T05:35:49;8.77;;;3.10;;
62693;SDS011;48759;52.544;13.418;2024-02-04T05:38:15;6.63;;;3.03;;
62693;SDS011;48759;52.544;13.418;2024-02-04T05:40:42;6.00;;;2.67;;
62693;SDS011;48759;52.544;13.418;2024-02-04T05:43:08;5.77;;;2.70;;
62693;SDS011;48759;52.544;13.418;2024-02-04T05:45:35;13.67;;;2.90;;
62693;SDS011;48759;52.544;13.418;2024-02-04T05:48:04;8.80;;;2.83;;
62693;SDS011;48759;52.544;13.418;2024-02-04T05:50:31;4.47;;;2.80;;
62693;SDS011;48759;52.544;13.418;2024-02-04T05:52:58;4.97;;;2.30;;
62693;SDS011;48759;52.544;13.418;2024-02-04T05:55:25;8.33;;;2.60;;
62693;SDS011;48759;52.544;13.418;2024-02-04T05:57:51;10.97;;;2.73;;
62693;SDS011;48759;52.544;13.418;2024-02-04T06:00:18;4.97;;;2.50;;
62693;SDS011;48759;52.544;13.418;2024-02-04T06:02:44;7.63;;;2.63;;
62693;SDS011;48759;52.544;13.418;2024-02-04T06:05:11;5.00;;;3.00;;
62693;SDS011;48759;52.544;13.418;2024-02-04T06:07:38;5.37;;;2.50;;
62693;SDS011;48759;52.544;13.418;2024-02-04T06:10:08;6.10;;;2.90;;
62693;SDS011;48759;52.544;13.418;2024-02-04T06:12:35;8.30;;;2.90;;
62693;SDS011;48759;52.544;13.418;2024-02-04T06:15:01;8.03;;;2.93;;
62693;SDS011;48759;52.544;13.418;2024-02-04T06:17:27;7.20;;;3.27;;
62693;SDS011;48759;52.544;13.418;2024-02-04T06:19:54;7.50;;;3.07;;
62693;SDS011;48759;52.544;13.418;2024-02-04T06:22:22;8.90;;;3.23;;
62693;SDS011;48759;52.544;13.418;2024-02-04T06:24:51;3.33;;;2.70;;
62693;SDS011;48759;52.544;13.418;2024-02-04T06:27:17;5.70;;;3.00;;
62693;SDS011;48759;52.544;13.418;2024-02-04T06:29:44;9.03;;;2.80;;
62693;SDS011;48759;52.544;13.418;2024-02-04T06:32:10;7.60;;;3.10;;
62693;SDS011;48759;52.544;13.418;2024-02-04T06:34:38;6.53;;;2.40;;
62693;SDS011;48759;52.544;13.418;2024-02-04T06:37:04;10.43;;;3.37;;
62693;SDS011;48759;52.544;13.418;2024-02-04T06:39:31;5.50;;;2.90;;
62693;SDS011;48759;52.544;13.418;2024-02-04T06:41:59;10.67;;;3.93;;
62693;SDS011;48759;52.544;13.418;2024-02-04T06:44:25;9.60;;;3.23;;
62693;SDS011;48759;52.544;13.418;2024-02-04T06:46:52;6.30;;;3.60;;
62693;SDS011;48759;52.544;13.418;2024-02-04T06:49:18;5.13;;;3.13;;
62693;SDS011;48759;52.544;13.418;2024-02-04T06:51:45;9.33;;;3.50;;
62693;SDS011;48759;52.544;13.418;2024-02-04T06:54:12;11.97;;;4.83;;
62693;SDS011;48759;52.544;13.418;2024-02-04T06:56:38;7.87;;;4.37;;
62693;SDS011;48759;52.544;13.418;2024-02-04T06:59:06;10.17;;;4.60;;
62693;SDS011;48759;52.544;13.418;2024-02-04T07:01:33;10.13;;;4.40;;
62693;SDS011;48759;52.544;13.418;2024-02-04T07:03:59;14.00;;;4.40;;
62693;SDS011;48759;52.544;13.418;2024-02-04T07:06:26;14.20;;;4.73;;
62693;SDS011;48759;52.544;13.418;2024-02-04T07:08:52;11.90;;;4.50;;
62693;SDS011;48759;52.544;13.418;2024-02-04T07:11:19;12.00;;;5.30;;
62693;SDS011;48759;52.544;13.418;2024-02-04T07:13:45;10.73;;;4.97;;
62693;SDS011;48759;52.544;13.418;2024-02-04T07:16:13;16.40;;;4.60;;
62693;SDS011;48759;52.544;13.418;2024-02-04T07:18:39;9.13;;;4.77;;
62693;SDS011;48759;52.544;13.418;2024-02-04T07:21:06;6.93;;;4.80;;
62693;SDS011;48759;52.544;13.418;2024-02-04T07:23:32;16.70;;;5.50;;
62693;SDS011;48759;52.544;13.418;2024-02-04T07:25:59;13.40;;;5.47;;
62693;SDS011;48759;52.544;13.418;2024-02-04T07:28:25;8.50;;;5.47;;
62693;SDS011;48759;52.544;13.418;2024-02-04T07:30:52;6.17;;;4.80;;
62693;SDS011;48759;52.544;13.418;2024-02-04T07:33:19;8.67;;;5.40;;
62693;SDS011;48759;52.544;13.418;2024-02-04T07:35:46;14.60;;;5.60;;
62693;SDS011;48759;52.544;13.418;2024-02-04T07:38:12;11.40;;;5.50;;
62693;SDS011;48759;52.544;13.418;2024-02-04T07:40:39;9.43;;;4.90;;
62693;SDS011;48759;52.544;13.418;2024-02-04T07:43:05;10.87;;;4.80;;
62693;SDS011;48759;52.544;13.418;2024-02-04T07:45:31;9.03;;;4.90;;
62693;SDS011;48759;52.544;13.418;2024-02-04T07:47:58;16.47;;;6.40;;
62693;SDS011;48759;52.544;13.418;2024-02-04T07:50:25;15.80;;;5.90;;
62693;SDS011;48759;52.544;13.418;2024-02-04T07:52:52;9.03;;;5.03;;
62693;SDS011;48759;52.544;13.418;2024-02-04T07:55:19;15.87;;;5.10;;
62693;SDS011;48759;52.544;13.418;2024-02-04T07:57:45;18.80;;;5.60;;
62693;SDS011;48759;52.544;13.418;2024-02-04T08:00:12;11.90;;;5.60;;
62693;SDS011;48759;52.544;13.418;2024-02-04T08:02:38;11.00;;;5.30;;
62693;SDS011;48759;52.544;13.418;2024-02-04T08:05:05;12.10;;;5.17;;
62693;SDS011;48759;52.544;13.418;2024-02-04T08:07:33;11.93;;;5.40;;
62693;SDS011;48759;52.544;13.418;2024-02-04T08:10:00;7.27;;;4.93;;
62693;SDS011;48759;52.544;13.418;2024-02-04T08:12:26;8.50;;;5.13;;
62693;SDS011;48759;52.544;13.418;2024-02-04T08:14:53;11.37;;;4.57;;
62693;SDS011;48759;52.544;13.418;2024-02-04T08:17:19;8.40;;;4.50;;
62693;SDS011;48759;52.544;13.418;2024-02-04T08:19:46;12.27;;;5.20;;
62693;SDS011;48759;52.544;13.418;2024-02-04T08:22:12;9.23;;;4.77;;
62693;SDS011;48759;52.544;13.418;2024-02-04T08:24:40;16.50;;;5.00;;
62693;SDS011;48759;52.544;13.418;2024-02-04T08:27:06;7.90;;;4.33;;
62693;SDS011;48759;52.544;13.418;2024-02-04T08:29:36;15.10;;;5.00;;
62693;SDS011;48759;52.544;13.418;2024-02-04T08:32:02;10.80;;;4.80;;
62693;SDS011;48759;52.544;13.418;2024-02-04T08:34:29;10.00;;;4.30;;
62693;SDS011;48759;52.544;13.418;2024-02-04T08:36:55;10.63;;;4.30;;
62693;SDS011;48759;52.544;13.418;2024-02-04T08:39:22;9.13;;;3.83;;
62693;SDS011;48759;52.544;13.418;2024-02-04T08:41:52;8.17;;;4.40;;
62693;SDS011;48759;52.544;13.418;2024-02-04T08:44:19;11.27;;;4.70;;
62693;SDS011;48759;52.544;13.418;2024-02-04T08:46:45;7.73;;;4.20;;
62693;SDS011;48759;52.544;13.418;2024-02-04T08:49:12;12.17;;;4.30;;
62693;SDS011;48759;52.544;13.418;2024-02-04T08:51:39;15.77;;;4.80;;
62693;SDS011;48759;52.544;13.418;2024-02-04T08:54:05;8.70;;;4.27;;
62693;SDS011;48759;52.544;13.418;2024-02-04T08:56:32;7.77;;;4.03;;
62693;SDS011;48759;52.544;13.418;2024-02-04T08:59:00;7.40;;;3.63;;
62693;SDS011;48759;52.544;13.418;2024-02-04T09:01:27;8.03;;;3.57;;
62693;SDS011;48759;52.544;13.418;2024-02-04T09:03:54;10.47;;;3.37;;
62693;SDS011;48759;52.544;13.418;2024-02-04T09:06:20;11.73;;;3.10;;
62693;SDS011;48759;52.544;13.418;2024-02-04T09:08:46;8.43;;;3.47;;
62693;SDS011;48759;52.544;13.418;2024-02-04T09:11:13;7.60;;;2.97;;
62693;SDS011;48759;52.544;13.418;2024-02-04T09:13:43;9.23;;;3.17;;
62693;SDS011;48759;52.544;13.418;2024-02-04T09:16:11;5.10;;;3.17;;
62693;SDS011;48759;52.544;13.418;2024-02-04T09:18:38;6.83;;;3.80;;
62693;SDS011;48759;52.544;13.418;2024-02-04T09:21:04;9.90;;;3.77;;
62693;SDS011;48759;52.544;13.418;2024-02-04T09:23:31;13.13;;;2.80;;
62693;SDS011;48759;52.544;13.418;2024-02-04T09:25:57;8.97;;;3.00;;
62693;SDS011;48759;52.544;13.418;2024-02-04T09:28:24;10.70;;;3.00;;
62693;SDS011;48759;52.544;13.418;2024-02-04T09:30:50;5.60;;;2.60;;
62693;SDS011;48759;52.544;13.418;2024-02-04T09:33:18;8.87;;;2.93;;
62693;SDS011;48759;52.544;13.418;2024-02-04T09:35:44;9.90;;;3.30;;
62693;SDS011;48759;52.544;13.418;2024-02-04T09:38:14;11.13;;;2.60;;
62693;SDS011;48759;52.544;13.418;2024-02-04T09:40:41;13.97;;;2.33;;
62693;SDS011;48759;52.544;13.418;2024-02-04T09:43:07;4.90;;;2.37;;
62693;SDS011;48759;52.544;13.418;2024-02-04T09:45:34;3.60;;;2.47;;
62693;SDS011;48759;52.544;13.418;2024-02-04T09:48:01;7.33;;;3.00;;
62693;SDS011;48759;52.544;13.418;2024-02-04T09:50:30;5.83;;;2.70;;
62693;SDS011;48759;52.544;13.418;2024-02-04T09:52:58;7.97;;;3.10;;
62693;SDS011;48759;52.544;13.418;2024-02-04T09:55:24;10.40;;;2.90;;
62693;SDS011;48759;52.544;13.418;2024-02-04T09:57:52;6.73;;;2.60;;
62693;SDS011;48759;52.544;13.418;2024-02-04T10:00:19;6.43;;;2.20;;
62693;SDS011;48759;52.544;13.418;2024-02-04T10:02:46;2.40;;;1.80;;
62693;SDS011;48759;52.544;13.418;2024-02-04T10:05:13;8.50;;;3.10;;
62693;SDS011;48759;52.544;13.418;2024-02-04T10:07:42;13.50;;;2.90;;
62693;SDS011;48759;52.544;13.418;2024-02-04T10:10:08;5.60;;;2.33;;
62693;SDS011;48759;52.544;13.418;2024-02-04T10:12:35;7.17;;;2.07;;
62693;SDS011;48759;52.544;13.418;2024-02-04T10:15:04;6.47;;;2.30;;
62693;SDS011;48759;52.544;13.418;2024-02-04T10:17:31;9.67;;;2.23;;
62693;SDS011;48759;52.544;13.418;2024-02-04T10:19:57;7.97;;;2.47;;
62693;SDS011;48759;52.544;13.418;2024-02-04T10:22:25;19.87;;;2.50;;
62693;SDS011;48759;52.544;13.418;2024-02-04T10:24:56;5.07;;;2.30;;
62693;SDS011;48759;52.544;13.418;2024-02-04T10:27:31;11.33;;;1.83;;
62693;SDS011;48759;52.544;13.418;2024-02-04T10:29:57;6.73;;;2.20;;
62693;SDS011;48759;52.544;13.418;2024-02-04T10:32:26;6.27;;;2.23;;
62693;SDS011;48759;52.544;13.418;2024-02-04T10:34:53;6.00;;;2.70;;
62693;SDS011;48759;52.544;13.418;2024-02-04T10:37:26;6.63;;;2.07;;
62693;SDS011;48759;52.544;13.418;2024-02-04T10:39:54;7.53;;;2.00;;
62693;SDS011;48759;52.544;13.418;2024-02-04T10:42:21;12.03;;;1.93;;
62693;SDS011;48759;52.544;13.418;2024-02-04T10:44:50;7.73;;;2.40;;
62693;SDS011;48759;52.544;13.418;2024-02-04T10:47:17;4.20;;;1.70;;
62693;SDS011;48759;52.544;13.418;2024-02-04T10:49:49;7.40;;;2.07;;
62693;SDS011;48759;52.544;13.418;2024-02-04T10:52:18;6.27;;;1.60;;
62693;SDS011;48759;52.544;13.418;2024-02-04T10:54:47;4.73;;;1.87;;
62693;SDS011;48759;52.544;13.418;2024-02-04T10:57:17;6.37;;;2.03;;
62693;SDS011;48759;52.544;13.418;2024-02-04T10:59:46;4.03;;;1.67;;
62693;SDS011;48759;52.544;13.418;2024-02-04T11:02:13;5.20;;;2.10;;
62693;SDS011;48759;52.544;13.418;2024-02-04T11:04:41;8.53;;;1.93;;
62693;SDS011;48759;52.544;13.418;2024-02-04T11:07:08;10.23;;;2.33;;
62693;SDS011;48759;52.544;13.418;2024-02-04T11:09:34;10.40;;;2.30;;
62693;SDS011;48759;52.544;13.418;2024-02-04T11:12:02;8.43;;;1.97;;
62693;SDS011;48759;52.544;13.418;2024-02-04T11:14:32;5.63;;;1.97;;
62693;SDS011;48759;52.544;13.418;2024-02-04T11:17:04;5.27;;;1.83;;
62693;SDS011;48759;52.544;13.418;2024-02-04T11:19:37;4.77;;;1.80;;
62693;SDS011;48759;52.544;13.418;2024-02-04T11:22:17;5.73;;;1.67;;
62693;SDS011;48759;52.544;13.418;2024-02-04T11:25:13;8.10;;;2.23;;
62693;SDS011;48759;52.544;13.418;2024-02-04T11:27:45;2.77;;;1.67;;
62693;SDS011;48759;52.544;13.418;2024-02-04T11:30:16;3.60;;;2.10;;
62693;SDS011;48759;52.544;13.418;2024-02-04T11:32:43;10.73;;;2.10;;
62693;SDS011;48759;52.544;13.418;2024-02-04T11:35:09;8.57;;;2.40;;
62693;SDS011;48759;52.544;13.418;2024-02-04T11:37:36;8.67;;;2.40;;
62693;SDS011;48759;52.544;13.418;2024-02-04T11:40:07;5.57;;;2.10;;
62693;SDS011;48759;52.544;13.418;2024-02-04T11:42:34;5.53;;;2.33;;
62693;SDS011;48759;52.544;13.418;2024-02-04T11:45:08;3.90;;;2.33;;
62693;SDS011;48759;52.544;13.418;2024-02-04T11:47:37;6.67;;;2.20;;
62693;SDS011;48759;52.544;13.418;2024-02-04T11:50:03;6.27;;;2.20;;
62693;SDS011;48759;52.544;13.418;2024-02-04T11:52:37;5.90;;;2.03;;
62693;SDS011;48759;52.544;13.418;2024-02-04T11:55:04;5.63;;;1.90;;
62693;SDS011;48759;52.544;13.418;2024-02-04T11:57:32;4.20;;;2.50;;
62693;SDS011;48759;52.544;13.418;2024-02-04T11:59:58;7.03;;;2.50;;
62693;SDS011;48759;52.544;13.418;2024-02-04T12:02:26;3.97;;;1.90;;
62693;SDS011;48759;52.544;13.418;2024-02-04T12:04:55;4.67;;;2.53;;
62693;SDS011;48759;52.544;13.418;2024-02-04T12:07:22;11.30;;;3.40;;
62693;SDS011;48759;52.544;13.418;2024-02-04T12:09:49;7.30;;;2.00;;
62693;SDS011;48759;52.544;13.418;2024-02-04T12:12:15;5.40;;;2.20;;
62693;SDS011;48759;52.544;13.418;2024-02-04T12:14:42;5.90;;;2.70;;
62693;SDS011;48759;52.544;13.418;2024-02-04T12:17:09;11.57;;;2.17;;
62693;SDS011;48759;52.544;13.418;2024-02-04T12:19:35;3.43;;;1.90;;
62693;SDS011;48759;52.544;13.418;2024-02-04T12:22:04;5.13;;;1.87;;
62693;SDS011;48759;52.544;13.418;2024-02-04T12:24:34;4.87;;;1.90;;
62693;SDS011;48759;52.544;13.418;2024-02-04T12:27:01;5.57;;;2.37;;
62693;SDS011;48759;52.544;13.418;2024-02-04T12:29:28;8.63;;;2.57;;
62693;SDS011;48759;52.544;13.418;2024-02-04T12:31:58;3.87;;;2.10;;
62693;SDS011;48759;52.544;13.418;2024-02-04T12:34:25;7.17;;;2.93;;
62693;SDS011;48759;52.544;13.418;2024-02-04T12:36:57;9.40;;;2.00;;
62693;SDS011;48759;52.544;13.418;2024-02-04T12:39:40;5.13;;;2.53;;
62693;SDS011;48759;52.544;13.418;2024-02-04T12:42:07;8.40;;;2.90;;
62693;SDS011;48759;52.544;13.418;2024-02-04T12:44:34;5.87;;;2.47;;
62693;SDS011;48759;52.544;13.418;2024-02-04T12:47:03;7.40;;;2.30;;
62693;SDS011;48759;52.544;13.418;2024-02-04T12:49:31;4.20;;;1.90;;
62693;SDS011;48759;52.544;13.418;2024-02-04T12:52:03;4.70;;;2.27;;
62693;SDS011;48759;52.544;13.418;2024-02-04T12:54:31;10.97;;;2.50;;
62693;SDS011;48759;52.544;13.418;2024-02-04T12:56:59;4.77;;;2.00;;
62693;SDS011;48759;52.544;13.418;2024-02-04T12:59:25;6.73;;;2.57;;
62693;SDS011;48759;52.544;13.418;2024-02-04T13:01:53;4.30;;;2.10;;
62693;SDS011;48759;52.544;13.418;2024-02-04T13:04:20;10.03;;;2.33;;
62693;SDS011;48759;52.544;13.418;2024-02-04T13:06:49;13.93;;;2.40;;
62693;SDS011;48759;52.544;13.418;2024-02-04T13:09:16;8.07;;;2.00;;
62693;SDS011;48759;52.544;13.418;2024-02-04T13:11:43;4.17;;;1.80;;
62693;SDS011;48759;52.544;13.418;2024-02-04T13:14:11;7.50;;;1.67;;
62693;SDS011;48759;52.544;13.418;2024-02-04T13:16:37;13.73;;;2.17;;
62693;SDS011;48759;52.544;13.418;2024-02-04T13:19:04;9.33;;;2.50;;
62693;SDS011;48759;52.544;13.418;2024-02-04T13:21:31;10.07;;;2.00;;
62693;SDS011;48759;52.544;13.418;2024-02-04T13:23:58;9.30;;;2.10;;
62693;SDS011;48759;52.544;13.418;2024-02-04T13:26:24;6.07;;;2.90;;
62693;SDS011;48759;52.544;13.418;2024-02-04T13:28:51;5.67;;;2.07;;
62693;SDS011;48759;52.544;13.418;2024-02-04T13:31:21;8.13;;;2.33;;
62693;SDS011;48759;52.544;13.418;2024-02-04T13:33:51;6.60;;;2.53;;
62693;SDS011;48759;52.544;13.418;2024-02-04T13:36:17;4.17;;;1.90;;
62693;SDS011;48759;52.544;13.418;2024-02-04T13:38:44;10.17;;;2.00;;
62693;SDS011;48759;52.544;13.418;2024-02-04T13:41:10;4.53;;;1.80;;
62693;SDS011;48759;52.544;13.418;2024-02-04T13:43:40;6.37;;;2.03;;
62693;SDS011;48759;52.544;13.418;2024-02-04T13:46:09;5.77;;;1.90;;
62693;SDS011;48759;52.544;13.418;2024-02-04T13:48:37;5.80;;;2.40;;
62693;SDS011;48759;52.544;13.418;2024-02-04T13:51:05;8.70;;;2.30;;
62693;SDS011;48759;52.544;13.418;2024-02-04T13:53:32;9.10;;;2.37;;
62693;SDS011;48759;52.544;13.418;2024-02-04T13:56:02;7.60;;;2.20;;
62693;SDS011;48759;52.544;13.418;2024-02-04T13:58:28;8.50;;;2.00;;
62693;SDS011;48759;52.544;13.418;2024-02-04T14:00:55;5.47;;;2.40;;
62693;SDS011;48759;52.544;13.418;2024-02-04T14:03:24;7.10;;;2.10;;
62693;SDS011;48759;52.544;13.418;2024-02-04T14:05:52;8.80;;;2.43;;
62693;SDS011;48759;52.544;13.418;2024-02-04T14:08:20;5.40;;;2.63;;
62693;SDS011;48759;52.544;13.418;2024-02-04T14:10:47;3.27;;;2.00;;
62693;SDS011;48759;52.544;13.418;2024-02-04T14:13:16;6.73;;;2.10;;
62693;SDS011;48759;52.544;13.418;2024-02-04T14:15:43;8.17;;;3.00;;
62693;SDS011;48759;52.544;13.418;2024-02-04T14:18:09;9.80;;;2.40;;
62693;SDS011;48759;52.544;13.418;2024-02-04T14:20:36;9.67;;;2.77;;
62693;SDS011;48759;52.544;13.418;2024-02-04T14:23:05;6.83;;;2.07;;
62693;SDS011;48759;52.544;13.418;2024-02-04T14:25:32;3.90;;;1.77;;
62693;SDS011;48759;52.544;13.418;2024-02-04T14:27:58;8.60;;;3.50;;
62693;SDS011;48759;52.544;13.418;2024-02-04T14:30:25;6.57;;;2.47;;